Time;durP1;ratioP1;P1;durP2;ratioP2;P2;SDS_P1;SDS_P2;PMS_P1;PMS_P2;Temp;Humidity;BMP_temperature;BMP_pressure;BME280_temperature;BME280_humidity;BME280_pressure;Samples;Min_cycle;Max_cycle;Signal;HPM_P1;HPM_P2
2021/10/18 00:00:38;;;;;;;;;;;;;;;23.18;28.96;98472.69;5006945;28;843;-81
2021/10/18 00:03:04;;;;;;;;;;;;;;;22.85;29.67;98464.94;5005827;28;1146;-81
2021/10/18 00:05:31;;;;;;;;;;;;;;;22.39;30.47;98477.38;5006792;28;853;-80
2021/10/18 00:07:56;;;;;;;;;;;;;;;23.17;29.27;98471.91;5006282;28;1171;-80
2021/10/18 00:10:21;;;;;;;;;;;;;;;22.37;30.26;98471.34;5006567;28;965;-81
2021/10/18 00:12:47;;;;;;;;;;;;;;;22.47;29.88;98466.66;5037029;28;1905;-81
2021/10/18 00:15:14;;;;;;;;;;;;;;;22.80;29.37;98461.84;5006054;28;1010;-81
2021/10/18 00:17:39;;;;;;;;;;;;;;;22.85;29.13;98470.63;4968011;28;2346;-81
2021/10/18 00:20:05;;;;;;;;;;;;;;;22.45;29.82;98455.75;4966122;28;894;-81
2021/10/18 00:22:31;;;;;;;;;;;;;;;22.70;29.40;98458.03;4968546;28;1031;-81
2021/10/18 00:24:56;;;;;;;;;;;;;;;22.48;29.93;98465.41;4965779;28;935;-81
2021/10/18 00:27:22;;;;;;;;;;;;;;;22.28;30.09;98466.28;4968444;28;937;-81
2021/10/18 00:29:47;;;;;;;;;;;;;;;22.33;30.13;98457.25;4966114;28;844;-81
2021/10/18 00:32:12;;;;;;;;;;;;;;;22.47;29.99;98469.50;4968219;28;791;-81
2021/10/18 00:34:38;;;;;;;;;;;;;;;22.15;30.32;98462.50;4965683;28;1971;-81
2021/10/18 00:37:03;;;;;;;;;;;;;;;22.33;30.21;98465.75;4967436;28;803;-81
2021/10/18 00:39:29;;;;;;;;;;;;;;;22.24;30.82;98459.88;4966741;28;776;-81
2021/10/18 00:41:54;;;;;;;;;;;;;;;22.42;30.21;98462.31;4967322;28;844;-81
2021/10/18 00:44:19;;;;;;;;;;;;;;;22.17;30.64;98460.00;4965311;28;978;-82
2021/10/18 00:46:45;;;;;;;;;;;;;;;22.34;30.31;98466.56;4980124;28;853;-81
2021/10/18 00:49:11;;;;;;;;;;;;;;;22.54;30.05;98463.69;5034718;28;1052;-81
2021/10/18 00:51:36;;;;;;;;;;;;;;;22.65;29.94;98461.38;5047815;28;822;-81
2021/10/18 00:54:01;;;;;;;;;;;;;;;22.82;29.50;98456.53;5045153;28;1902;-81
2021/10/18 00:56:27;;;;;;;;;;;;;;;22.83;29.75;98458.91;5005585;28;915;-81
2021/10/18 00:58:53;;;;;;;;;;;;;;;23.09;29.11;98453.44;4984075;28;1029;-81
2021/10/18 01:01:19;;;;;;;;;;;;;;;22.85;29.53;98456.44;4986212;28;929;-81
2021/10/18 01:03:44;;;;;;;;;;;;;;;23.01;29.06;98455.66;4983990;28;1023;-81
2021/10/18 01:06:09;;;;;;;;;;;;;;;22.92;28.99;98451.84;4986831;28;1429;-81
2021/10/18 01:08:35;;;;;;;;;;;;;;;22.63;29.49;98463.84;4983575;28;861;-81
2021/10/18 01:11:00;;;;;;;;;;;;;;;22.44;29.94;98456.22;4987559;28;896;-81
2021/10/18 01:13:26;;;;;;;;;;;;;;;22.43;29.75;98458.22;4983039;28;1895;-81
2021/10/18 01:15:51;;;;;;;;;;;;;;;22.30;30.38;98460.94;4986803;28;1190;-81
2021/10/18 01:18:16;;;;;;;;;;;;;;;22.39;29.97;98462.41;4984615;28;1036;-81
2021/10/18 01:20:42;;;;;;;;;;;;;;;22.33;30.19;98462.94;4986650;28;856;-81
2021/10/18 01:23:08;;;;;;;;;;;;;;;22.34;30.26;98453.19;5003388;28;946;-80
2021/10/18 01:25:33;;;;;;;;;;;;;;;22.29;30.12;98456.53;5005034;28;823;-81
2021/10/18 01:27:59;;;;;;;;;;;;;;;22.23;30.50;98455.44;4964833;28;986;-80
2021/10/18 01:30:24;;;;;;;;;;;;;;;22.40;30.41;98464.78;4950279;28;938;-81
2021/10/18 01:32:50;;;;;;;;;;;;;;;22.22;30.93;98461.53;4949567;29;1979;-81
2021/10/18 01:35:15;;;;;;;;;;;;;;;21.51;31.74;98458.13;4953371;28;891;-81
2021/10/18 01:37:41;;;;;;;;;;;;;;;22.36;30.56;98459.19;4966010;28;972;-81
2021/10/18 01:40:07;;;;;;;;;;;;;;;22.95;29.58;98450.94;4965546;28;965;-81
2021/10/18 01:42:32;;;;;;;;;;;;;;;22.70;29.83;98460.84;4966492;29;788;-81
2021/10/18 01:44:58;;;;;;;;;;;;;;;22.66;29.81;98457.31;4964398;29;979;-81
2021/10/18 01:47:26;;;;;;;;;;;;;;;23.17;29.03;98457.69;4935145;29;996;-81
2021/10/18 01:49:52;;;;;;;;;;;;;;;22.74;29.69;98457.91;4983961;28;1082;-81
2021/10/18 01:52:17;;;;;;;;;;;;;;;23.16;29.13;98461.78;4986027;28;845;-81
2021/10/18 01:54:42;;;;;;;;;;;;;;;23.19;28.89;98466.56;4998907;28;1914;-81
2021/10/18 01:57:08;;;;;;;;;;;;;;;23.04;28.95;98459.66;5005863;28;743;-81
2021/10/18 01:59:33;;;;;;;;;;;;;;;22.82;29.14;98457.31;5032786;28;793;-81
2021/10/18 02:01:59;;;;;;;;;;;;;;;22.62;29.69;98465.09;5045790;28;818;-81
2021/10/18 02:04:24;;;;;;;;;;;;;;;22.59;29.72;98469.63;5043849;28;903;-81
2021/10/18 02:06:50;;;;;;;;;;;;;;;22.15;30.38;98473.03;5045495;28;941;-81
2021/10/18 02:09:15;;;;;;;;;;;;;;;22.29;30.20;98473.53;5044858;28;964;-81
2021/10/18 02:11:41;;;;;;;;;;;;;;;22.23;30.72;98463.16;5049405;28;957;-81
2021/10/18 02:14:06;;;;;;;;;;;;;;;22.25;30.34;98461.47;5047119;28;1878;-81
2021/10/18 02:16:35;;;;;;;;;;;;;;;22.05;30.69;98469.16;5028764;28;1104;-81
2021/10/18 02:19:00;;;;;;;;;;;;;;;22.10;30.56;98471.50;5026691;28;1005;-81
2021/10/18 02:21:26;;;;;;;;;;;;;;;21.98;31.06;98469.31;5028759;28;937;-81
2021/10/18 02:23:52;;;;;;;;;;;;;;;22.62;29.87;98473.59;5026864;28;771;-81
2021/10/18 02:26:17;;;;;;;;;;;;;;;22.76;29.70;98467.59;5027901;28;826;-81
2021/10/18 02:28:42;;;;;;;;;;;;;;;22.94;29.54;98483.41;5026000;28;719;-81
2021/10/18 02:31:08;;;;;;;;;;;;;;;22.85;29.58;98470.63;5028642;28;1024;-81
2021/10/18 02:33:34;;;;;;;;;;;;;;;22.63;29.94;98486.53;5026465;28;1977;-81
2021/10/18 02:35:59;;;;;;;;;;;;;;;22.64;30.06;98476.81;5030504;28;814;-81
2021/10/18 02:38:25;;;;;;;;;;;;;;;22.71;29.87;98482.31;5042358;28;978;-81
2021/10/18 02:40:50;;;;;;;;;;;;;;;22.73;29.71;98485.50;5029265;28;853;-81
2021/10/18 02:43:16;;;;;;;;;;;;;;;23.02;29.38;98484.84;5025608;28;1000;-81
2021/10/18 02:45:41;;;;;;;;;;;;;;;23.16;29.01;98484.50;5028296;28;766;-81
2021/10/18 02:48:07;;;;;;;;;;;;;;;23.08;28.80;98478.19;5043030;28;938;-81
2021/10/18 02:50:32;;;;;;;;;;;;;;;22.81;29.20;98469.91;5050543;28;742;-81
2021/10/18 02:52:59;;;;;;;;;;;;;;;22.54;29.66;98483.53;5048243;28;1902;-81
2021/10/18 02:55:25;;;;;;;;;;;;;;;22.54;29.63;98477.84;5049666;28;887;-81
2021/10/18 02:57:51;;;;;;;;;;;;;;;22.51;30.11;98473.06;5048751;28;773;-81
2021/10/18 03:00:16;;;;;;;;;;;;;;;22.32;30.47;98477.50;5048433;28;905;-81
2021/10/18 03:02:42;;;;;;;;;;;;;;;22.43;29.95;98474.44;5050073;28;838;-81
2021/10/18 03:05:07;;;;;;;;;;;;;;;22.32;30.42;98478.31;5048558;28;826;-81
2021/10/18 03:07:33;;;;;;;;;;;;;;;22.24;30.51;98476.09;5050167;28;937;-81
2021/10/18 03:09:58;;;;;;;;;;;;;;;22.21;30.53;98474.91;5046187;28;930;-80
2021/10/18 03:12:24;;;;;;;;;;;;;;;21.64;31.74;98490.22;5049856;28;810;-81
2021/10/18 03:14:49;;;;;;;;;;;;;;;22.25;30.72;98478.47;5046817;28;1914;-81
2021/10/18 03:17:15;;;;;;;;;;;;;;;22.83;29.62;98478.75;5049449;28;746;-81
2021/10/18 03:19:40;;;;;;;;;;;;;;;22.55;30.11;98485.13;5046978;28;772;-81
2021/10/18 03:22:05;;;;;;;;;;;;;;;22.75;29.79;98482.22;5050090;28;742;-81
2021/10/18 03:24:31;;;;;;;;;;;;;;;22.90;29.44;98477.03;5046940;28;934;-81
2021/10/18 03:26:56;;;;;;;;;;;;;;;22.72;29.82;98475.38;5049253;28;747;-80
2021/10/18 03:29:22;;;;;;;;;;;;;;;23.02;29.35;98479.16;5046689;28;876;-81
2021/10/18 03:31:48;;;;;;;;;;;;;;;21.53;29.59;98248.94;5031182;28;980;-81
2021/10/18 03:34:13;;;;;;;;;;;;;;;23.06;29.32;98477.06;5047007;28;1886;-81
2021/10/18 03:36:39;;;;;;;;;;;;;;;22.73;29.65;98485.50;5049214;28;731;-81
2021/10/18 03:39:05;;;;;;;;;;;;;;;22.96;28.85;98484.59;5004967;28;956;-81
2021/10/18 03:41:30;;;;;;;;;;;;;;;22.75;29.38;98488.69;5008178;28;858;-81
2021/10/18 03:43:56;;;;;;;;;;;;;;;22.62;29.57;98488.56;5005736;28;840;-81
2021/10/18 03:46:21;;;;;;;;;;;;;;;22.39;30.24;98480.22;5007988;28;790;-81
2021/10/18 03:48:46;;;;;;;;;;;;;;;22.29;30.06;98484.88;5005150;28;827;-81
2021/10/18 03:51:12;;;;;;;;;;;;;;;22.35;30.18;98480.28;4991359;28;910;-81
2021/10/18 03:53:37;;;;;;;;;;;;;;;22.43;29.81;98488.63;5004992;28;1895;-81
2021/10/18 03:56:03;;;;;;;;;;;;;;;22.20;30.38;98481.81;5008234;28;1030;-81
2021/10/18 03:58:29;;;;;;;;;;;;;;;22.24;30.36;98488.22;5004233;28;974;-81
2021/10/18 04:00:54;;;;;;;;;;;;;;;21.45;32.30;98488.13;5008015;28;919;-81
2021/10/18 04:03:20;;;;;;;;;;;;;;;22.56;30.42;98481.03;5004628;28;954;-81
2021/10/18 04:05:46;;;;;;;;;;;;;;;22.52;30.13;98488.81;5006764;28;969;-81
2021/10/18 04:08:11;;;;;;;;;;;;;;;22.99;29.30;98488.56;5004756;28;1019;-81
2021/10/18 04:10:37;;;;;;;;;;;;;;;22.63;30.00;98486.53;5037598;28;1031;-81
2021/10/18 04:13:02;;;;;;;;;;;;;;;22.62;29.64;98493.47;5043021;28;1898;-82
2021/10/18 04:15:27;;;;;;;;;;;;;;;23.24;28.86;98491.56;5044396;28;1692;-80
2021/10/18 04:17:53;;;;;;;;;;;;;;;22.84;29.69;98483.19;5047414;28;1658;-81
2021/10/18 04:20:18;;;;;;;;;;;;;;;23.19;28.96;98489.28;5047428;28;908;-81
2021/10/18 04:22:46;;;;;;;;;;;;;;;22.74;29.56;98495.63;5048039;28;1676;-82
2021/10/18 04:25:12;;;;;;;;;;;;;;;22.96;28.96;98486.63;5047185;28;919;-81
2021/10/18 04:27:38;;;;;;;;;;;;;;;22.66;29.26;98491.34;5046236;28;981;-81
2021/10/18 04:30:03;;;;;;;;;;;;;;;22.48;29.63;98491.72;5045453;28;1627;-81
2021/10/18 04:32:29;;;;;;;;;;;;;;;22.48;29.67;98491.72;5045857;28;962;-81
2021/10/18 04:34:54;;;;;;;;;;;;;;;22.17;30.15;98498.91;5044106;28;1961;-81
2021/10/18 04:37:19;;;;;;;;;;;;;;;22.41;29.64;98491.91;5046784;28;971;-81
2021/10/18 04:39:45;;;;;;;;;;;;;;;22.50;29.88;98499.81;5043111;28;1592;-81
2021/10/18 04:42:10;;;;;;;;;;;;;;;22.12;30.46;98503.03;5045934;28;881;-81
2021/10/18 04:44:37;;;;;;;;;;;;;;;22.35;29.79;98497.28;5043144;28;983;-81
2021/10/18 04:47:02;;;;;;;;;;;;;;;22.05;30.69;98503.16;5044878;28;1066;-81
2021/10/18 04:49:28;;;;;;;;;;;;;;;22.38;30.10;98500.47;5025602;28;1639;-81
2021/10/18 04:51:53;;;;;;;;;;;;;;;22.39;30.15;98502.09;5044860;28;866;-81
2021/10/18 04:54:19;;;;;;;;;;;;;;;22.26;30.08;98508.41;5043216;28;1887;-81
2021/10/18 04:56:44;;;;;;;;;;;;;;;22.21;30.32;98506.09;5045652;28;907;-81
2021/10/18 04:59:09;;;;;;;;;;;;;;;22.98;29.10;98513.31;5044968;28;879;-81
2021/10/18 05:01:35;;;;;;;;;;;;;;;23.07;28.86;98521.22;5048155;28;1568;-81
2021/10/18 05:04:00;;;;;;;;;;;;;;;22.47;29.85;98524.16;5045710;28;1622;-81
2021/10/18 05:06:26;;;;;;;;;;;;;;;22.71;29.51;98521.22;5047740;28;876;-81
2021/10/18 05:08:53;;;;;;;;;;;;;;;23.02;28.82;98527.41;5046220;28;989;-81
2021/10/18 05:11:19;;;;;;;;;;;;;;;22.97;28.95;98519.44;5047081;28;1789;-81
2021/10/18 05:13:44;;;;;;;;;;;;;;;22.74;29.03;98524.00;5045472;28;1906;-81
2021/10/18 05:16:10;;;;;;;;;;;;;;;22.54;29.43;98528.91;5048172;28;1086;-81
2021/10/18 05:18:35;;;;;;;;;;;;;;;22.44;29.78;98535.59;5045197;28;931;-81
2021/10/18 05:21:05;;;;;;;;;;;;;;;22.43;29.69;98540.44;5035561;28;1614;-81
2021/10/18 05:23:31;;;;;;;;;;;;;;;22.35;30.04;98534.16;5024339;28;920;-81
2021/10/18 05:25:56;;;;;;;;;;;;;;;22.48;29.78;98541.97;5042754;28;931;-81
2021/10/18 05:28:21;;;;;;;;;;;;;;;22.34;30.09;98557.28;5024382;28;1057;-81
2021/10/18 05:30:47;;;;;;;;;;;;;;;22.24;30.37;98556.25;5038524;28;1829;-81
2021/10/18 05:33:12;;;;;;;;;;;;;;;22.20;30.23;98561.19;5044787;28;1871;-81
2021/10/18 05:35:38;;;;;;;;;;;;;;;22.23;30.26;98565.22;5047501;28;881;-81
2021/10/18 05:38:03;;;;;;;;;;;;;;;22.28;30.48;98568.34;5045096;28;812;-81
2021/10/18 05:40:28;;;;;;;;;;;;;;;21.82;31.02;98570.00;5038119;28;1614;-80
2021/10/18 05:42:54;;;;;;;;;;;;;;;22.58;30.05;98575.78;5027112;28;880;-81
2021/10/18 05:45:19;;;;;;;;;;;;;;;22.53;30.12;98572.66;5029750;28;892;-81
2021/10/18 05:47:52;;;;;;;;;;;;;;;22.36;30.34;98569.75;5031287;28;782;-81
2021/10/18 05:50:17;;;;;;;;;;;;;;;23.05;29.35;98571.94;5036131;28;1638;-80
2021/10/18 05:52:43;;;;;;;;;;;;;;;22.96;29.27;98571.75;5050274;28;1030;-80
2021/10/18 05:55:08;;;;;;;;;;;;;;;23.06;29.33;98570.72;5049497;28;1913;-81
2021/10/18 05:57:43;;;;;;;;;;;;;;;23.17;29.16;98574.09;5051321;28;1020;-81
2021/10/18 06:00:09;;;;;;;;;;;;;;;23.07;29.05;98583.66;5044695;28;1646;-82
2021/10/18 06:02:37;;;;;;;;;;;;;;;22.80;29.06;98578.97;5045798;28;947;-81
2021/10/18 06:05:02;;;;;;;;;;;;;;;22.51;29.53;98586.50;5044638;28;937;-80
2021/10/18 06:07:28;;;;;;;;;;;;;;;22.44;29.49;98586.66;5032079;28;844;-81
2021/10/18 06:09:53;;;;;;;;;;;;;;;22.43;29.77;98590.69;5031194;28;1599;-81
2021/10/18 06:12:18;;;;;;;;;;;;;;;22.30;30.04;98587.72;5031573;28;1420;-81
2021/10/18 06:14:44;;;;;;;;;;;;;;;22.34;30.22;98589.25;5031793;28;1918;-81
2021/10/18 06:17:09;;;;;;;;;;;;;;;22.31;30.15;98592.97;5050148;28;854;-81
2021/10/18 06:19:34;;;;;;;;;;;;;;;22.57;29.75;98602.53;5049031;28;1600;-81
2021/10/18 06:22:00;;;;;;;;;;;;;;;22.26;30.95;98596.28;5049962;28;1560;-81
2021/10/18 06:24:26;;;;;;;;;;;;;;;22.23;30.95;98600.03;5048196;28;953;-81
2021/10/18 06:26:51;;;;;;;;;;;;;;;22.52;30.27;98605.09;5050007;28;946;-82
2021/10/18 06:29:17;;;;;;;;;;;;;;;22.66;30.09;98604.81;5048972;28;1654;-81
2021/10/18 06:31:42;;;;;;;;;;;;;;;22.43;30.22;98613.38;5050786;28;815;-81
2021/10/18 06:34:08;;;;;;;;;;;;;;;22.66;30.01;98607.63;5048804;28;1890;-81
2021/10/18 06:36:33;;;;;;;;;;;;;;;22.65;30.06;98620.22;5050482;28;876;-81
2021/10/18 06:38:59;;;;;;;;;;;;;;;23.24;29.08;98610.81;5048406;28;1674;-81
2021/10/18 06:41:24;;;;;;;;;;;;;;;22.87;29.88;98621.34;5051228;28;861;-81
2021/10/18 06:43:49;;;;;;;;;;;;;;;23.13;29.12;98618.78;5048912;28;992;-81
2021/10/18 06:46:15;;;;;;;;;;;;;;;23.00;29.21;98618.69;5050075;28;901;-81
2021/10/18 06:48:40;;;;;;;;;;;;;;;22.67;29.66;98628.28;5046854;28;1643;-80
2021/10/18 06:51:06;;;;;;;;;;;;;;;22.44;30.11;98620.69;5015678;28;885;-81
2021/10/18 06:53:33;;;;;;;;;;;;;;;22.53;29.83;98618.03;5045754;28;1898;-78
2021/10/18 06:56:02;;;;;;;;;;;;;;;22.51;29.87;98621.31;5049839;28;1673;-81
2021/10/18 06:58:27;;;;;;;;;;;;;;;22.51;30.02;98618.47;5046831;28;894;-80
2021/10/18 07:00:53;;;;;;;;;;;;;;;22.43;30.36;98631.19;5050360;28;1603;-81
2021/10/18 07:03:18;;;;;;;;;;;;;;;22.38;30.27;98619.56;5047100;28;846;-81
2021/10/18 07:05:43;;;;;;;;;;;;;;;22.51;30.13;98626.19;5049786;28;819;-80
2021/10/18 07:08:09;;;;;;;;;;;;;;;22.36;30.14;98620.81;5047397;28;996;-81
2021/10/18 07:10:34;;;;;;;;;;;;;;;22.30;30.20;98625.38;5048841;28;1702;-80
2021/10/18 07:13:03;;;;;;;;;;;;;;;22.30;30.43;98636.72;5045440;28;1971;-81
2021/10/18 07:15:29;;;;;;;;;;;;;;;22.04;31.51;98631.94;5049105;28;1057;-81
2021/10/18 07:17:55;;;;;;;;;;;;;;;22.22;31.09;98626.75;5028607;28;1036;-80
2021/10/18 07:20:20;;;;;;;;;;;;;;;22.44;30.52;98637.69;5033828;28;1806;-80
2021/10/18 07:22:48;;;;;;;;;;;;;;;22.59;30.27;98634.13;5043288;28;914;-81
2021/10/18 07:25:14;;;;;;;;;;;;;;;22.53;30.66;98635.06;5042258;28;939;-81
2021/10/18 07:27:40;;;;;;;;;;;;;;;22.73;30.13;98633.00;5028216;28;846;-81
2021/10/18 07:30:05;;;;;;;;;;;;;;;23.25;29.23;98623.78;5038697;28;1738;-80
2021/10/18 07:32:32;;;;;;;;;;;;;;;22.70;30.07;98631.06;5048273;28;1381;-81
2021/10/18 07:34:58;;;;;;;;;;;;;;;22.93;29.86;98632.22;5045762;28;1914;-81
2021/10/18 07:37:27;;;;;;;;;;;;;;;22.96;29.41;98634.19;5050252;28;958;-81
2021/10/18 07:39:53;;;;;;;;;;;;;;;23.04;29.11;98629.94;5037564;28;1645;-81
2021/10/18 07:42:18;;;;;;;;;;;;;;;22.82;29.36;98624.72;5044012;28;1015;-81
2021/10/18 07:44:43;;;;;;;;;;;;;;;22.59;29.64;98636.97;5027418;28;865;-81
2021/10/18 07:47:09;;;;;;;;;;;;;;;22.32;30.58;98631.41;5029226;28;815;-80
2021/10/18 07:49:40;;;;;;;;;;;;;;;22.52;29.95;98639.13;5027124;28;1674;-81
2021/10/18 07:52:05;;;;;;;;;;;;;;;22.39;30.17;98635.34;5029174;28;917;-81
2021/10/18 07:54:31;;;;;;;;;;;;;;;22.29;30.36;98637.97;5027295;28;1891;-81
2021/10/18 07:56:56;;;;;;;;;;;;;;;22.23;30.53;98636.88;5029020;28;876;-81
2021/10/18 07:59:22;;;;;;;;;;;;;;;22.33;30.17;98638.69;5011355;28;1600;-81
2021/10/18 08:01:47;;;;;;;;;;;;;;;22.36;30.54;98632.13;5048756;28;884;-80
2021/10/18 08:04:13;;;;;;;;;;;;;;;22.35;30.86;98629.75;5046706;28;831;-81
2021/10/18 08:06:38;;;;;;;;;;;;;;;22.85;29.85;98634.41;5047372;28;893;-81
2021/10/18 08:09:07;;;;;;;;;;;;;;;22.32;30.89;98634.25;5029561;28;1607;-81
2021/10/18 08:11:32;;;;;;;;;;;;;;;22.69;29.94;98632.31;5006206;28;952;-81
2021/10/18 08:13:58;;;;;;;;;;;;;;;22.81;30.07;98628.78;5004659;28;1910;-80
2021/10/18 08:16:23;;;;;;;;;;;;;;;22.83;29.88;98626.31;4990414;28;1062;-81
2021/10/18 08:18:50;;;;;;;;;;;;;;;22.63;30.00;98628.34;5004042;28;1836;-81
2021/10/18 08:21:16;;;;;;;;;;;;;;;22.85;30.12;98628.72;5005963;28;869;-81
2021/10/18 08:23:42;;;;;;;;;;;;;;;22.71;30.00;98635.50;5005101;28;1029;-82
2021/10/18 08:26:07;;;;;;;;;;;;;;;22.61;30.21;98628.00;5007479;28;897;-81
2021/10/18 08:28:32;;;;;;;;;;;;;;;22.75;29.93;98630.56;5004471;28;1612;-81
2021/10/18 08:30:58;;;;;;;;;;;;;;;22.52;29.86;98633.47;5007948;28;1024;-81
2021/10/18 08:33:23;;;;;;;;;;;;;;;22.51;30.15;98637.53;5003807;28;1906;-81
2021/10/18 08:35:49;;;;;;;;;;;;;;;22.50;29.82;98624.59;5007636;28;915;-81
2021/10/18 08:38:19;;;;;;;;;;;;;;;22.35;30.19;98627.72;5004489;28;1517;-81
2021/10/18 08:43:28;;;;;;;;;;;;;;;22.30;30.48;98622.53;4978281;28;1002;-81
2021/10/18 08:45:53;;;;;;;;;;;;;;;22.33;30.19;98627.34;4987864;28;1043;-81
2021/10/18 08:48:19;;;;;;;;;;;;;;;22.24;30.38;98623.50;4984393;28;1652;-80
2021/10/18 08:50:44;;;;;;;;;;;;;;;22.27;30.11;98629.06;4986983;28;909;-81
2021/10/18 08:53:10;;;;;;;;;;;;;;;22.29;30.41;98614.47;4984056;28;1954;-81
2021/10/18 08:55:36;;;;;;;;;;;;;;;22.01;31.38;98621.44;4986416;28;941;-81
2021/10/18 08:58:02;;;;;;;;;;;;;;;22.12;31.17;98616.41;4984637;28;1586;-81
2021/10/18 09:00:46;;;;;;;;;;;;;;;22.30;30.47;98618.91;4969811;28;1065;-81
2021/10/18 09:03:17;;;;;;;;;;;;;;;22.45;30.37;98622.28;4984167;28;1614;-81
2021/10/18 09:05:42;;;;;;;;;;;;;;;22.58;30.36;98626.03;4986164;28;888;-81
2021/10/18 09:08:08;;;;;;;;;;;;;;;23.09;29.44;98615.22;4984530;28;1641;-81
2021/10/18 09:10:33;;;;;;;;;;;;;;;22.86;29.52;98613.28;4987424;28;1128;-81
2021/10/18 09:13:09;;;;;;;;;;;;;;;22.76;29.82;98609.44;5028297;28;1980;-81
2021/10/18 09:15:35;;;;;;;;;;;;;;;22.87;29.44;98604.34;5046746;28;1057;-81
2021/10/18 09:18:00;;;;;;;;;;;;;;;22.77;29.59;98605.38;5039394;28;1620;-81
2021/10/18 09:20:27;;;;;;;;;;;;;;;22.54;29.50;98611.94;5027608;28;834;-81
2021/10/18 09:22:53;;;;;;;;;;;;;;;22.39;30.03;98618.34;5027087;28;800;-82
2021/10/18 09:25:32;;;;;;;;;;;;;;;22.48;30.03;98610.03;5026717;28;849;-80
2021/10/18 09:28:13;;;;;;;;;;;;;;;22.35;30.03;98602.19;4979472;28;1726;-80
2021/10/18 09:30:42;;;;;;;;;;;;;;;22.34;29.91;98600.59;4966690;29;930;-81
2021/10/18 09:33:32;;;;;;;;;;;;;;;22.30;30.10;98599.06;4964382;29;1887;-81
2021/10/18 09:35:58;;;;;;;;;;;;;;;22.15;30.22;98597.75;4966625;29;1088;-81
2021/10/18 09:38:24;;;;;;;;;;;;;;;22.22;30.27;98591.94;4970960;28;1635;-81
2021/10/18 09:40:50;;;;;;;;;;;;;;;22.13;30.43;98592.53;4970578;28;1069;-81
2021/10/18 09:43:19;;;;;;;;;;;;;;;22.22;30.52;98587.06;4983045;28;902;-81
2021/10/18 09:46:35;;;;;;;;;;;;;;;22.51;30.14;98592.16;4970319;28;962;-81
2021/10/18 10:55:58;;;;;;;;;;;;;;;22.44;29.70;98552.63;4932247;29;999;-81
2021/10/18 10:58:33;;;;;;;;;;;;;;;22.47;29.86;98560.22;4913166;29;1892;-80
2021/10/18 11:00:59;;;;;;;;;;;;;;;22.42;29.74;98543.72;4897230;29;1005;-81
2021/10/18 11:03:31;;;;;;;;;;;;;;;22.31;30.14;98558.94;4895386;29;905;-81
2021/10/18 11:06:05;;;;;;;;;;;;;;;22.24;30.05;98556.25;4966208;28;1163;-81
2021/10/18 11:08:31;;;;;;;;;;;;;;;22.18;30.10;98545.88;5002413;28;1723;-81
2021/10/18 11:11:07;;;;;;;;;;;;;;;22.25;30.27;98559.88;4993539;28;1589;-81
2021/10/18 11:13:40;;;;;;;;;;;;;;;22.29;29.88;98552.13;5007360;28;1891;-81
2021/10/18 11:16:05;;;;;;;;;;;;;;;22.25;30.07;98540.84;5010571;28;1062;-81
2021/10/18 11:18:31;;;;;;;;;;;;;;;22.31;30.65;98544.75;5008619;28;1731;-81
2021/10/18 11:20:56;;;;;;;;;;;;;;;22.55;30.13;98542.63;5008367;28;1451;-80
2021/10/18 11:23:22;;;;;;;;;;;;;;;22.36;30.24;98541.41;5004691;28;1028;-81
2021/10/18 11:25:47;;;;;;;;;;;;;;;22.90;29.62;98557.31;5007364;28;895;-81
2021/10/18 11:28:12;;;;;;;;;;;;;;;23.02;29.31;98547.28;4988533;28;1671;-81
2021/10/18 11:30:38;;;;;;;;;;;;;;;22.92;29.21;98548.34;5020620;28;1608;-81
2021/10/18 11:33:08;;;;;;;;;;;;;;;22.53;30.18;98544.28;5020613;28;1883;-81
2021/10/18 11:35:33;;;;;;;;;;;;;;;22.35;30.38;98542.66;5006911;28;1290;-81
2021/10/18 11:38:09;;;;;;;;;;;;;;;22.78;29.55;98538.06;4989725;28;947;-81
2021/10/18 11:40:38;;;;;;;;;;;;;;;22.75;29.23;98547.47;4986310;28;1597;-81
2021/10/18 11:43:07;;;;;;;;;;;;;;;22.63;29.27;98537.59;4966112;29;1717;-81
2021/10/18 11:45:37;;;;;;;;;;;;;;;22.45;29.68;98540.03;4968297;28;1034;-81
2021/10/18 11:48:12;;;;;;;;;;;;;;;22.58;29.19;98544.59;4950587;29;962;-81
2021/10/18 11:50:38;;;;;;;;;;;;;;;22.42;29.59;98535.22;4982005;28;1590;-81
2021/10/18 11:53:19;;;;;;;;;;;;;;;22.39;29.70;98538.97;4986390;28;937;-82
2021/10/18 11:55:54;;;;;;;;;;;;;;;22.30;30.01;98531.81;4987722;28;912;-81
2021/10/18 11:58:20;;;;;;;;;;;;;;;22.21;30.11;98544.97;4984741;28;979;-80
2021/10/18 12:00:46;;;;;;;;;;;;;;;22.30;29.98;98534.66;4986930;28;1825;-81
2021/10/18 12:03:16;;;;;;;;;;;;;;;22.21;30.00;98540.09;4968179;28;1593;-81
2021/10/18 12:05:45;;;;;;;;;;;;;;;22.10;30.10;98545.16;4993579;28;920;-81
2021/10/18 12:08:14;;;;;;;;;;;;;;;22.18;30.12;98541.00;5023811;28;991;-81
2021/10/18 12:10:39;;;;;;;;;;;;;;;22.30;30.55;98531.81;5026047;28;1928;-81
2021/10/18 12:13:12;;;;;;;;;;;;;;;22.36;30.25;98530.06;5039813;28;1907;-81
2021/10/18 12:15:38;;;;;;;;;;;;;;;22.71;29.45;98535.41;5035245;28;1160;-81
2021/10/18 12:18:04;;;;;;;;;;;;;;;22.61;29.87;98540.09;5061005;28;982;-81
2021/10/18 12:20:29;;;;;;;;;;;;;;;22.50;30.07;98539.53;5046811;28;1780;-81
2021/10/18 12:23:02;;;;;;;;;;;;;;;22.54;30.19;98531.75;5045916;28;1590;-80
2021/10/18 12:25:27;;;;;;;;;;;;;;;22.76;29.71;98535.69;5044942;28;899;-80
2021/10/18 12:27:53;;;;;;;;;;;;;;;23.06;28.97;98533.81;5045985;28;986;-81
2021/10/18 12:30:37;;;;;;;;;;;;;;;22.75;29.37;98531.25;5046788;28;1540;-81
2021/10/18 12:33:10;;;;;;;;;;;;;;;22.98;28.76;98536.00;5045562;28;1821;-81
2021/10/18 12:35:35;;;;;;;;;;;;;;;22.56;29.57;98537.75;5046897;28;1616;-81
2021/10/18 12:38:10;;;;;;;;;;;;;;;22.58;29.59;98535.28;5040326;28;1606;-81
2021/10/18 12:40:36;;;;;;;;;;;;;;;22.43;29.79;98539.66;5025538;28;1080;-81
2021/10/18 12:43:02;;;;;;;;;;;;;;;22.40;29.63;98540.56;5023881;28;983;-81
2021/10/18 12:45:31;;;;;;;;;;;;;;;22.33;29.92;98530.97;5025054;28;1013;-81
2021/10/18 12:47:59;;;;;;;;;;;;;;;22.37;29.89;98533.69;5023297;28;1656;-81
2021/10/18 12:50:25;;;;;;;;;;;;;;;22.48;29.59;98536.31;5023465;28;952;-81
2021/10/18 12:52:51;;;;;;;;;;;;;;;22.26;29.97;98531.09;5023086;28;931;-81
2021/10/18 12:55:17;;;;;;;;;;;;;;;22.30;29.68;98534.66;5004356;28;1989;-81
2021/10/18 12:57:45;;;;;;;;;;;;;;;21.91;30.64;98543.91;5003936;28;1564;-81
2021/10/18 13:00:11;;;;;;;;;;;;;;;22.53;30.20;98538.63;5003845;28;898;-81
2021/10/18 13:02:39;;;;;;;;;;;;;;;22.17;30.54;98550.72;5004212;28;1597;-81
2021/10/18 13:05:05;;;;;;;;;;;;;;;22.42;30.17;98543.72;5004151;28;1040;-81
2021/10/18 13:07:34;;;;;;;;;;;;;;;22.94;29.28;98540.16;5005566;28;1146;-81
2021/10/18 13:09:59;;;;;;;;;;;;;;;22.40;30.28;98540.56;5020568;28;978;-81
2021/10/18 13:12:26;;;;;;;;;;;;;;;22.62;29.76;98536.00;5024910;28;1719;-81
2021/10/18 13:14:52;;;;;;;;;;;;;;;22.72;29.53;98534.97;5022374;28;1993;-81
2021/10/18 13:17:17;;;;;;;;;;;;;;;22.57;29.91;98542.19;5025392;28;986;-79
2021/10/18 13:19:43;;;;;;;;;;;;;;;22.69;29.59;98546.38;5022968;28;961;-81
2021/10/18 13:22:08;;;;;;;;;;;;;;;22.75;29.22;98544.66;5012819;28;1757;-81
2021/10/18 13:24:33;;;;;;;;;;;;;;;22.50;29.75;98550.88;5003572;28;1012;-81
2021/10/18 13:26:59;;;;;;;;;;;;;;;22.44;29.43;98547.75;5022773;28;930;-81
2021/10/18 13:29:24;;;;;;;;;;;;;;;22.40;29.59;98557.56;5025285;28;862;-81
2021/10/18 13:31:50;;;;;;;;;;;;;;;22.33;29.65;98558.53;5002324;28;1644;-80
2021/10/18 13:34:15;;;;;;;;;;;;;;;22.40;29.45;98552.69;4983964;28;1968;-81
2021/10/18 13:36:41;;;;;;;;;;;;;;;22.47;29.50;98557.41;4985905;28;940;-81
2021/10/18 13:39:06;;;;;;;;;;;;;;;22.36;29.81;98557.63;4967211;28;1004;-80
2021/10/18 13:41:32;;;;;;;;;;;;;;;22.18;29.88;98562.88;4984765;28;1731;-81
2021/10/18 13:43:57;;;;;;;;;;;;;;;22.12;30.02;98565.38;4983357;28;908;-81
2021/10/18 13:46:24;;;;;;;;;;;;;;;22.11;29.96;98569.47;4985121;28;939;-81
2021/10/18 13:48:49;;;;;;;;;;;;;;;22.04;30.53;98563.91;4983217;28;974;-81
2021/10/18 13:51:15;;;;;;;;;;;;;;;22.52;29.83;98554.84;4985370;28;1627;-81
2021/10/18 13:53:42;;;;;;;;;;;;;;;22.42;29.89;98561.53;4982608;28;1906;-81
2021/10/18 13:56:08;;;;;;;;;;;;;;;22.58;29.71;98555.13;4985582;28;1059;-81
2021/10/18 13:58:33;;;;;;;;;;;;;;;22.62;29.58;98558.69;4982076;28;1055;-80
2021/10/18 14:00:59;;;;;;;;;;;;;;;22.77;29.37;98559.97;4986086;28;2108;-81
2021/10/18 14:03:24;;;;;;;;;;;;;;;22.60;29.46;98567.66;4997400;28;980;-81
2021/10/18 14:05:49;;;;;;;;;;;;;;;22.98;29.13;98555.88;5009609;28;874;-81
2021/10/18 14:08:15;;;;;;;;;;;;;;;22.64;29.61;98561.91;5006370;28;824;-81